sensor_id;sensor_type;location;lat;lon;timestamp;temperature;humidity
16479;DHT22;8350;52.316;10.530;2023-04-01T00:02:10;9.90;99.90
16479;DHT22;8350;52.316;10.530;2023-04-01T00:04:37;10.00;99.90
16479;DHT22;8350;52.316;10.530;2023-04-01T00:07:04;10.00;99.90
16479;DHT22;8350;52.316;10.530;2023-04-01T00:09:33;10.00;99.90
16479;DHT22;8350;52.316;10.530;2023-04-01T00:12:00;10.00;99.90
16479;DHT22;8350;52.316;10.530;2023-04-01T00:14:27;10.00;99.90
16479;DHT22;8350;52.316;10.530;2023-04-01T00:16:56;10.00;99.90
16479;DHT22;8350;52.316;10.530;2023-04-01T00:19:23;10.00;99.90
16479;DHT22;8350;52.316;10.530;2023-04-01T00:21:50;9.90;99.90
16479;DHT22;8350;52.316;10.530;2023-04-01T00:24:25;9.90;99.90
16479;DHT22;8350;52.316;10.530;2023-04-01T00:26:55;9.90;99.90
16479;DHT22;8350;52.316;10.530;2023-04-01T00:29:22;9.90;99.90
16479;DHT22;8350;52.316;10.530;2023-04-01T00:31:56;9.90;99.90
16479;DHT22;8350;52.316;10.530;2023-04-01T00:34:23;9.90;99.90
16479;DHT22;8350;52.316;10.530;2023-04-01T00:36:51;9.90;99.90
16479;DHT22;8350;52.316;10.530;2023-04-01T00:39:21;9.80;99.90
16479;DHT22;8350;52.316;10.530;2023-04-01T00:41:48;9.70;99.90
16479;DHT22;8350;52.316;10.530;2023-04-01T00:44:17;9.70;99.90
16479;DHT22;8350;52.316;10.530;2023-04-01T00:46:45;9.70;99.90
16479;DHT22;8350;52.316;10.530;2023-04-01T00:49:14;9.70;99.90
16479;DHT22;8350;52.316;10.530;2023-04-01T00:51:46;9.80;99.90
16479;DHT22;8350;52.316;10.530;2023-04-01T00:54:16;9.80;99.90
16479;DHT22;8350;52.316;10.530;2023-04-01T00:56:48;9.70;99.90
16479;DHT22;8350;52.316;10.530;2023-04-01T00:59:22;9.70;99.90
16479;DHT22;8350;52.316;10.530;2023-04-01T01:01:50;9.70;99.90
16479;DHT22;8350;52.316;10.530;2023-04-01T01:04:24;9.70;99.90
16479;DHT22;8350;52.316;10.530;2023-04-01T01:06:59;9.70;99.90
16479;DHT22;8350;52.316;10.530;2023-04-01T01:09:38;9.70;99.90
16479;DHT22;8350;52.316;10.530;2023-04-01T01:12:11;9.70;99.90
16479;DHT22;8350;52.316;10.530;2023-04-01T01:14:51;9.70;99.90
16479;DHT22;8350;52.316;10.530;2023-04-01T01:17:29;9.70;99.90
16479;DHT22;8350;52.316;10.530;2023-04-01T01:26:27;9.70;99.90
16479;DHT22;8350;52.316;10.530;2023-04-01T01:29:04;9.70;99.90
16479;DHT22;8350;52.316;10.530;2023-04-01T01:31:37;9.60;99.90
16479;DHT22;8350;52.316;10.530;2023-04-01T01:34:14;9.70;99.90
16479;DHT22;8350;52.316;10.530;2023-04-01T01:36:47;9.60;99.90
16479;DHT22;8350;52.316;10.530;2023-04-01T01:39:16;9.60;99.90
16479;DHT22;8350;52.316;10.530;2023-04-01T01:41:45;9.60;99.90
16479;DHT22;8350;52.316;10.530;2023-04-01T01:44:18;9.70;99.90
16479;DHT22;8350;52.316;10.530;2023-04-01T01:46:45;9.70;99.90
16479;DHT22;8350;52.316;10.530;2023-04-01T01:49:16;9.70;99.90
16479;DHT22;8350;52.316;10.530;2023-04-01T01:51:48;9.60;99.90
16479;DHT22;8350;52.316;10.530;2023-04-01T01:54:16;9.60;99.90
16479;DHT22;8350;52.316;10.530;2023-04-01T01:56:45;9.60;99.90
16479;DHT22;8350;52.316;10.530;2023-04-01T01:59:15;9.60;99.90
16479;DHT22;8350;52.316;10.530;2023-04-01T02:01:45;9.70;99.90
16479;DHT22;8350;52.316;10.530;2023-04-01T02:04:14;9.60;99.90
16479;DHT22;8350;52.316;10.530;2023-04-01T02:06:44;9.60;99.90
16479;DHT22;8350;52.316;10.530;2023-04-01T02:09:15;9.60;99.90
16479;DHT22;8350;52.316;10.530;2023-04-01T02:11:44;9.60;99.90
16479;DHT22;8350;52.316;10.530;2023-04-01T02:14:17;9.60;99.90
16479;DHT22;8350;52.316;10.530;2023-04-01T02:16:50;9.60;99.90
16479;DHT22;8350;52.316;10.530;2023-04-01T02:19:20;9.60;99.90
16479;DHT22;8350;52.316;10.530;2023-04-01T02:21:53;9.60;99.90
16479;DHT22;8350;52.316;10.530;2023-04-01T02:24:27;9.60;99.90
16479;DHT22;8350;52.316;10.530;2023-04-01T02:26:55;9.60;99.90
16479;DHT22;8350;52.316;10.530;2023-04-01T02:29:23;9.60;99.90
16479;DHT22;8350;52.316;10.530;2023-04-01T02:31:52;9.60;99.90
16479;DHT22;8350;52.316;10.530;2023-04-01T02:34:20;9.60;99.90
16479;DHT22;8350;52.316;10.530;2023-04-01T02:36:48;9.60;99.90
16479;DHT22;8350;52.316;10.530;2023-04-01T02:39:16;9.60;99.90
16479;DHT22;8350;52.316;10.530;2023-04-01T02:41:45;9.60;99.90
16479;DHT22;8350;52.316;10.530;2023-04-01T02:44:13;9.60;99.90
16479;DHT22;8350;52.316;10.530;2023-04-01T02:46:41;9.60;99.90
16479;DHT22;8350;52.316;10.530;2023-04-01T02:49:08;9.70;99.90
16479;DHT22;8350;52.316;10.530;2023-04-01T02:51:35;9.70;99.90
16479;DHT22;8350;52.316;10.530;2023-04-01T02:54:02;9.70;99.90
16479;DHT22;8350;52.316;10.530;2023-04-01T02:56:29;9.60;99.90
16479;DHT22;8350;52.316;10.530;2023-04-01T02:58:57;9.60;99.90
16479;DHT22;8350;52.316;10.530;2023-04-01T03:01:24;9.60;99.90
16479;DHT22;8350;52.316;10.530;2023-04-01T03:03:51;9.60;99.90
16479;DHT22;8350;52.316;10.530;2023-04-01T03:06:18;9.50;99.90
16479;DHT22;8350;52.316;10.530;2023-04-01T03:08:45;9.50;99.90
16479;DHT22;8350;52.316;10.530;2023-04-01T03:11:13;9.50;99.90
16479;DHT22;8350;52.316;10.530;2023-04-01T03:13:43;9.50;99.90
16479;DHT22;8350;52.316;10.530;2023-04-01T03:16:11;9.60;99.90
16479;DHT22;8350;52.316;10.530;2023-04-01T03:18:38;9.60;99.90
16479;DHT22;8350;52.316;10.530;2023-04-01T03:21:15;9.60;99.90
16479;DHT22;8350;52.316;10.530;2023-04-01T03:23:43;9.50;99.90
16479;DHT22;8350;52.316;10.530;2023-04-01T03:26:24;9.50;99.90
16479;DHT22;8350;52.316;10.530;2023-04-01T03:28:52;9.50;99.90
16479;DHT22;8350;52.316;10.530;2023-04-01T03:31:22;9.50;99.90
16479;DHT22;8350;52.316;10.530;2023-04-01T03:33:49;9.50;99.90
16479;DHT22;8350;52.316;10.530;2023-04-01T03:36:16;9.50;99.90
16479;DHT22;8350;52.316;10.530;2023-04-01T03:38:44;9.50;99.90
16479;DHT22;8350;52.316;10.530;2023-04-01T03:41:12;9.50;99.90
16479;DHT22;8350;52.316;10.530;2023-04-01T03:43:39;9.60;99.90
16479;DHT22;8350;52.316;10.530;2023-04-01T03:46:06;9.50;99.90
16479;DHT22;8350;52.316;10.530;2023-04-01T03:48:34;9.50;99.90
16479;DHT22;8350;52.316;10.530;2023-04-01T03:51:06;9.60;99.90
16479;DHT22;8350;52.316;10.530;2023-04-01T03:53:33;9.60;99.90
16479;DHT22;8350;52.316;10.530;2023-04-01T03:56:03;9.50;99.90
16479;DHT22;8350;52.316;10.530;2023-04-01T03:58:31;9.60;99.90
16479;DHT22;8350;52.316;10.530;2023-04-01T04:00:58;9.60;99.90
16479;DHT22;8350;52.316;10.530;2023-04-01T04:03:25;9.60;99.90
16479;DHT22;8350;52.316;10.530;2023-04-01T04:05:55;9.60;99.90
16479;DHT22;8350;52.316;10.530;2023-04-01T04:08:22;9.60;99.90
16479;DHT22;8350;52.316;10.530;2023-04-01T04:10:54;9.60;99.90
16479;DHT22;8350;52.316;10.530;2023-04-01T04:13:25;9.50;99.90
16479;DHT22;8350;52.316;10.530;2023-04-01T04:15:52;9.60;99.90
16479;DHT22;8350;52.316;10.530;2023-04-01T04:18:19;9.60;99.90
16479;DHT22;8350;52.316;10.530;2023-04-01T04:20:46;9.50;99.90
16479;DHT22;8350;52.316;10.530;2023-04-01T04:23:18;9.50;99.90
16479;DHT22;8350;52.316;10.530;2023-04-01T04:25:54;9.50;99.90
16479;DHT22;8350;52.316;10.530;2023-04-01T04:28:21;9.50;99.90
16479;DHT22;8350;52.316;10.530;2023-04-01T04:30:48;9.50;99.90
16479;DHT22;8350;52.316;10.530;2023-04-01T04:33:15;9.40;99.90
16479;DHT22;8350;52.316;10.530;2023-04-01T04:35:42;9.40;99.90
16479;DHT22;8350;52.316;10.530;2023-04-01T04:38:13;9.50;99.90
16479;DHT22;8350;52.316;10.530;2023-04-01T04:40:42;9.50;99.90
16479;DHT22;8350;52.316;10.530;2023-04-01T04:43:11;9.40;99.90
16479;DHT22;8350;52.316;10.530;2023-04-01T04:45:38;9.40;99.90
16479;DHT22;8350;52.316;10.530;2023-04-01T04:48:06;9.40;99.90
16479;DHT22;8350;52.316;10.530;2023-04-01T04:50:34;9.40;99.90
16479;DHT22;8350;52.316;10.530;2023-04-01T04:53:01;9.40;99.90
16479;DHT22;8350;52.316;10.530;2023-04-01T04:55:28;9.40;99.90
16479;DHT22;8350;52.316;10.530;2023-04-01T04:57:56;9.40;99.90
16479;DHT22;8350;52.316;10.530;2023-04-01T05:00:24;9.40;99.90
16479;DHT22;8350;52.316;10.530;2023-04-01T05:02:51;9.40;99.90
16479;DHT22;8350;52.316;10.530;2023-04-01T05:05:17;9.40;99.90
16479;DHT22;8350;52.316;10.530;2023-04-01T05:07:47;9.40;99.90
16479;DHT22;8350;52.316;10.530;2023-04-01T05:10:14;9.40;99.90
16479;DHT22;8350;52.316;10.530;2023-04-01T05:12:42;9.40;99.90
16479;DHT22;8350;52.316;10.530;2023-04-01T05:15:11;9.40;99.90
16479;DHT22;8350;52.316;10.530;2023-04-01T05:17:38;9.30;99.90
16479;DHT22;8350;52.316;10.530;2023-04-01T05:20:07;9.40;99.90
16479;DHT22;8350;52.316;10.530;2023-04-01T05:22:35;9.40;99.90
16479;DHT22;8350;52.316;10.530;2023-04-01T05:25:02;9.40;99.90
16479;DHT22;8350;52.316;10.530;2023-04-01T05:27:30;9.40;99.90
16479;DHT22;8350;52.316;10.530;2023-04-01T05:29:58;9.40;99.90
16479;DHT22;8350;52.316;10.530;2023-04-01T05:32:30;9.40;99.90
16479;DHT22;8350;52.316;10.530;2023-04-01T05:34:57;9.40;99.90
16479;DHT22;8350;52.316;10.530;2023-04-01T05:37:28;9.40;99.90
16479;DHT22;8350;52.316;10.530;2023-04-01T05:40:01;9.40;99.90
16479;DHT22;8350;52.316;10.530;2023-04-01T05:42:29;9.40;99.90
16479;DHT22;8350;52.316;10.530;2023-04-01T05:44:56;9.50;99.90
16479;DHT22;8350;52.316;10.530;2023-04-01T05:47:37;9.50;99.90
16479;DHT22;8350;52.316;10.530;2023-04-01T05:50:14;9.50;99.90
16479;DHT22;8350;52.316;10.530;2023-04-01T05:52:42;9.50;99.90
16479;DHT22;8350;52.316;10.530;2023-04-01T05:55:10;9.60;99.90
16479;DHT22;8350;52.316;10.530;2023-04-01T05:57:37;9.50;99.90
16479;DHT22;8350;52.316;10.530;2023-04-01T06:00:04;9.50;99.90
16479;DHT22;8350;52.316;10.530;2023-04-01T06:02:31;9.60;99.90
16479;DHT22;8350;52.316;10.530;2023-04-01T06:05:09;9.60;99.90
16479;DHT22;8350;52.316;10.530;2023-04-01T06:07:37;9.60;99.90
16479;DHT22;8350;52.316;10.530;2023-04-01T06:10:12;9.60;99.90
16479;DHT22;8350;52.316;10.530;2023-04-01T06:12:50;9.60;99.90
16479;DHT22;8350;52.316;10.530;2023-04-01T06:15:28;9.60;99.90
16479;DHT22;8350;52.316;10.530;2023-04-01T06:21:01;9.70;99.90
16479;DHT22;8350;52.316;10.530;2023-04-01T06:23:46;9.70;99.90
16479;DHT22;8350;52.316;10.530;2023-04-01T06:26:23;9.70;99.90
16479;DHT22;8350;52.316;10.530;2023-04-01T06:32:24;9.70;99.90
16479;DHT22;8350;52.316;10.530;2023-04-01T06:35:11;9.80;99.90
16479;DHT22;8350;52.316;10.530;2023-04-01T06:38:00;9.90;99.90
16479;DHT22;8350;52.316;10.530;2023-04-01T06:40:44;9.90;99.90
16479;DHT22;8350;52.316;10.530;2023-04-01T06:43:20;10.00;99.90
16479;DHT22;8350;52.316;10.530;2023-04-01T06:45:53;10.00;99.90
16479;DHT22;8350;52.316;10.530;2023-04-01T06:48:38;10.00;99.90
16479;DHT22;8350;52.316;10.530;2023-04-01T06:51:19;10.00;99.90
16479;DHT22;8350;52.316;10.530;2023-04-01T06:53:54;10.20;99.90
16479;DHT22;8350;52.316;10.530;2023-04-01T06:56:25;10.20;99.90
16479;DHT22;8350;52.316;10.530;2023-04-01T06:58:55;10.30;99.90
16479;DHT22;8350;52.316;10.530;2023-04-01T07:01:27;10.30;99.90
16479;DHT22;8350;52.316;10.530;2023-04-01T07:03:58;10.30;99.90
16479;DHT22;8350;52.316;10.530;2023-04-01T07:06:30;10.40;99.90
16479;DHT22;8350;52.316;10.530;2023-04-01T07:09:02;10.50;99.90
16479;DHT22;8350;52.316;10.530;2023-04-01T07:11:32;10.50;99.90
16479;DHT22;8350;52.316;10.530;2023-04-01T07:14:06;10.70;99.90
16479;DHT22;8350;52.316;10.530;2023-04-01T07:16:41;10.70;99.90
16479;DHT22;8350;52.316;10.530;2023-04-01T07:19:14;10.90;99.90
16479;DHT22;8350;52.316;10.530;2023-04-01T07:21:46;10.90;99.90
16479;DHT22;8350;52.316;10.530;2023-04-01T07:24:34;10.90;99.90
16479;DHT22;8350;52.316;10.530;2023-04-01T07:27:05;10.90;99.90
16479;DHT22;8350;52.316;10.530;2023-04-01T07:29:35;11.00;99.90
16479;DHT22;8350;52.316;10.530;2023-04-01T07:32:24;11.10;99.90
16479;DHT22;8350;52.316;10.530;2023-04-01T07:35:13;11.10;99.90
16479;DHT22;8350;52.316;10.530;2023-04-01T07:37:49;11.10;99.90
16479;DHT22;8350;52.316;10.530;2023-04-01T07:40:28;11.10;99.90
16479;DHT22;8350;52.316;10.530;2023-04-01T07:43:19;11.00;99.90
16479;DHT22;8350;52.316;10.530;2023-04-01T07:45:53;11.10;99.90
16479;DHT22;8350;52.316;10.530;2023-04-01T07:48:27;11.20;99.90
16479;DHT22;8350;52.316;10.530;2023-04-01T07:51:02;11.20;99.90
16479;DHT22;8350;52.316;10.530;2023-04-01T07:53:35;11.30;99.90
16479;DHT22;8350;52.316;10.530;2023-04-01T07:56:09;11.20;99.90
16479;DHT22;8350;52.316;10.530;2023-04-01T07:58:47;11.30;99.90
16479;DHT22;8350;52.316;10.530;2023-04-01T08:01:23;11.40;99.90
16479;DHT22;8350;52.316;10.530;2023-04-01T08:06:47;11.40;99.90
16479;DHT22;8350;52.316;10.530;2023-04-01T08:09:24;11.60;99.90
16479;DHT22;8350;52.316;10.530;2023-04-01T08:12:04;11.60;99.90
16479;DHT22;8350;52.316;10.530;2023-04-01T08:14:43;11.80;99.90
16479;DHT22;8350;52.316;10.530;2023-04-01T08:17:18;11.80;99.90
16479;DHT22;8350;52.316;10.530;2023-04-01T08:19:57;11.90;99.90
16479;DHT22;8350;52.316;10.530;2023-04-01T08:22:41;11.90;99.90
16479;DHT22;8350;52.316;10.530;2023-04-01T08:25:16;12.00;99.90
16479;DHT22;8350;52.316;10.530;2023-04-01T08:27:50;12.00;99.90
16479;DHT22;8350;52.316;10.530;2023-04-01T08:30:19;12.10;99.90
16479;DHT22;8350;52.316;10.530;2023-04-01T08:32:51;12.10;99.90
16479;DHT22;8350;52.316;10.530;2023-04-01T08:35:26;12.10;99.90
16479;DHT22;8350;52.316;10.530;2023-04-01T08:37:55;12.20;99.90
16479;DHT22;8350;52.316;10.530;2023-04-01T08:43:41;12.20;99.90
16479;DHT22;8350;52.316;10.530;2023-04-01T08:46:22;12.10;99.90
16479;DHT22;8350;52.316;10.530;2023-04-01T08:49:11;12.10;99.90
16479;DHT22;8350;52.316;10.530;2023-04-01T08:55:02;12.00;99.90
16479;DHT22;8350;52.316;10.530;2023-04-01T08:57:42;11.90;99.90
16479;DHT22;8350;52.316;10.530;2023-04-01T09:00:22;11.80;99.90
16479;DHT22;8350;52.316;10.530;2023-04-01T09:06:17;11.70;99.90
16479;DHT22;8350;52.316;10.530;2023-04-01T09:09:00;11.60;99.90
16479;DHT22;8350;52.316;10.530;2023-04-01T09:11:42;11.70;99.90
16479;DHT22;8350;52.316;10.530;2023-04-01T09:14:38;11.70;99.90
16479;DHT22;8350;52.316;10.530;2023-04-01T09:20:39;11.90;99.90
16479;DHT22;8350;52.316;10.530;2023-04-01T09:23:35;11.90;99.90
16479;DHT22;8350;52.316;10.530;2023-04-01T09:26:16;11.90;99.90
16479;DHT22;8350;52.316;10.530;2023-04-01T09:28:51;12.00;99.90
16479;DHT22;8350;52.316;10.530;2023-04-01T09:31:31;12.10;99.90
16479;DHT22;8350;52.316;10.530;2023-04-01T09:34:30;12.20;99.90
16479;DHT22;8350;52.316;10.530;2023-04-01T09:37:18;12.30;99.90
16479;DHT22;8350;52.316;10.530;2023-04-01T09:40:01;12.30;99.90
16479;DHT22;8350;52.316;10.530;2023-04-01T09:42:43;12.30;99.90
16479;DHT22;8350;52.316;10.530;2023-04-01T09:45:29;12.40;99.90
16479;DHT22;8350;52.316;10.530;2023-04-01T09:48:07;12.40;99.90
16479;DHT22;8350;52.316;10.530;2023-04-01T09:50:45;12.60;46.40
16479;DHT22;8350;52.316;10.530;2023-04-01T09:53:33;12.70;75.60
16479;DHT22;8350;52.316;10.530;2023-04-01T09:56:31;12.90;42.40
16479;DHT22;8350;52.316;10.530;2023-04-01T10:08:36;13.30;1.00
16479;DHT22;8350;52.316;10.530;2023-04-01T10:14:36;13.30;3.70
16479;DHT22;8350;52.316;10.530;2023-04-01T10:17:48;13.30;29.20
16479;DHT22;8350;52.316;10.530;2023-04-01T10:20:41;13.40;1.00
16479;DHT22;8350;52.316;10.530;2023-04-01T10:23:26;13.40;27.40
16479;DHT22;8350;52.316;10.530;2023-04-01T10:26:23;13.30;9.20
16479;DHT22;8350;52.316;10.530;2023-04-01T10:29:11;13.20;29.50
16479;DHT22;8350;52.316;10.530;2023-04-01T10:32:05;13.10;40.50
16479;DHT22;8350;52.316;10.530;2023-04-01T10:40:57;12.80;32.60
16479;DHT22;8350;52.316;10.530;2023-04-01T10:50:22;12.40;97.70
16479;DHT22;8350;52.316;10.530;2023-04-01T10:53:22;12.30;99.40
16479;DHT22;8350;52.316;10.530;2023-04-01T11:05:39;12.10;90.10
16479;DHT22;8350;52.316;10.530;2023-04-01T11:18:13;12.10;68.30
16479;DHT22;8350;52.316;10.530;2023-04-01T11:24:23;12.30;99.90
16479;DHT22;8350;52.316;10.530;2023-04-01T11:27:04;12.40;99.90
16479;DHT22;8350;52.316;10.530;2023-04-01T11:29:50;12.50;99.90
16479;DHT22;8350;52.316;10.530;2023-04-01T11:32:34;12.70;99.90
16479;DHT22;8350;52.316;10.530;2023-04-01T11:35:37;12.80;99.90
16479;DHT22;8350;52.316;10.530;2023-04-01T11:38:37;12.80;99.90
16479;DHT22;8350;52.316;10.530;2023-04-01T11:41:19;12.80;99.90
16479;DHT22;8350;52.316;10.530;2023-04-01T11:44:04;12.80;96.00
16479;DHT22;8350;52.316;10.530;2023-04-01T11:46:41;12.70;99.90
16479;DHT22;8350;52.316;10.530;2023-04-01T11:49:25;12.70;99.90
16479;DHT22;8350;52.316;10.530;2023-04-01T11:52:08;12.70;93.60
16479;DHT22;8350;52.316;10.530;2023-04-01T11:54:54;12.80;94.40
16479;DHT22;8350;52.316;10.530;2023-04-01T11:57:41;12.70;32.20
16479;DHT22;8350;52.316;10.530;2023-04-01T12:00:31;12.70;79.20
16479;DHT22;8350;52.316;10.530;2023-04-01T12:03:18;12.60;86.10
16479;DHT22;8350;52.316;10.530;2023-04-01T12:05:53;12.70;82.10
16479;DHT22;8350;52.316;10.530;2023-04-01T12:08:31;12.80;72.00
16479;DHT22;8350;52.316;10.530;2023-04-01T12:11:16;12.90;71.20
16479;DHT22;8350;52.316;10.530;2023-04-01T12:13:51;13.10;39.50
16479;DHT22;8350;52.316;10.530;2023-04-01T12:16:29;13.10;20.20
16479;DHT22;8350;52.316;10.530;2023-04-01T12:19:03;13.10;20.90
16479;DHT22;8350;52.316;10.530;2023-04-01T12:21:36;12.80;1.00
16479;DHT22;8350;52.316;10.530;2023-04-01T12:27:22;12.50;63.00
16479;DHT22;8350;52.316;10.530;2023-04-01T12:30:11;12.30;46.70
16479;DHT22;8350;52.316;10.530;2023-04-01T12:32:46;12.20;43.50
16479;DHT22;8350;52.316;10.530;2023-04-01T12:35:30;12.10;61.60
16479;DHT22;8350;52.316;10.530;2023-04-01T12:38:14;12.00;99.90
16479;DHT22;8350;52.316;10.530;2023-04-01T12:40:56;11.90;99.90
16479;DHT22;8350;52.316;10.530;2023-04-01T12:46:47;11.80;99.90
16479;DHT22;8350;52.316;10.530;2023-04-01T12:49:32;11.80;99.90
16479;DHT22;8350;52.316;10.530;2023-04-01T12:52:07;11.70;99.90
16479;DHT22;8350;52.316;10.530;2023-04-01T13:04:05;11.80;99.90
16479;DHT22;8350;52.316;10.530;2023-04-01T13:07:01;11.80;99.90
16479;DHT22;8350;52.316;10.530;2023-04-01T13:09:42;11.90;99.90
16479;DHT22;8350;52.316;10.530;2023-04-01T13:12:35;11.80;99.90
16479;DHT22;8350;52.316;10.530;2023-04-01T13:15:15;11.80;99.90
16479;DHT22;8350;52.316;10.530;2023-04-01T13:17:53;11.80;99.90
16479;DHT22;8350;52.316;10.530;2023-04-01T13:20:33;11.90;99.90
16479;DHT22;8350;52.316;10.530;2023-04-01T13:23:09;11.90;99.90
16479;DHT22;8350;52.316;10.530;2023-04-01T13:25:40;11.80;99.90
16479;DHT22;8350;52.316;10.530;2023-04-01T13:28:15;11.90;99.90
16479;DHT22;8350;52.316;10.530;2023-04-01T13:30:47;12.00;99.90
16479;DHT22;8350;52.316;10.530;2023-04-01T13:33:22;11.80;99.90
16479;DHT22;8350;52.316;10.530;2023-04-01T13:36:03;11.50;99.90
16479;DHT22;8350;52.316;10.530;2023-04-01T13:39:01;11.40;99.90
16479;DHT22;8350;52.316;10.530;2023-04-01T13:41:43;11.10;99.90
16479;DHT22;8350;52.316;10.530;2023-04-01T13:44:17;10.80;99.90
16479;DHT22;8350;52.316;10.530;2023-04-01T13:46:57;10.60;99.90
16479;DHT22;8350;52.316;10.530;2023-04-01T13:53:15;10.20;99.90
16479;DHT22;8350;52.316;10.530;2023-04-01T13:55:59;10.10;99.90
16479;DHT22;8350;52.316;10.530;2023-04-01T13:58:42;10.00;99.90
16479;DHT22;8350;52.316;10.530;2023-04-01T14:01:15;9.90;99.90
16479;DHT22;8350;52.316;10.530;2023-04-01T14:04:15;9.80;99.90
16479;DHT22;8350;52.316;10.530;2023-04-01T14:06:58;9.80;99.90
16479;DHT22;8350;52.316;10.530;2023-04-01T14:09:41;9.70;99.90
16479;DHT22;8350;52.316;10.530;2023-04-01T14:12:23;9.60;99.90
16479;DHT22;8350;52.316;10.530;2023-04-01T14:15:07;9.60;99.90
16479;DHT22;8350;52.316;10.530;2023-04-01T14:17:58;9.60;99.90
16479;DHT22;8350;52.316;10.530;2023-04-01T14:20:36;9.50;99.90
16479;DHT22;8350;52.316;10.530;2023-04-01T14:23:34;9.40;99.90
16479;DHT22;8350;52.316;10.530;2023-04-01T14:26:39;9.40;99.90
16479;DHT22;8350;52.316;10.530;2023-04-01T14:29:33;9.30;99.90
16479;DHT22;8350;52.316;10.530;2023-04-01T14:32:10;9.30;99.90
16479;DHT22;8350;52.316;10.530;2023-04-01T14:34:51;9.20;99.90
16479;DHT22;8350;52.316;10.530;2023-04-01T14:37:54;9.10;99.90
16479;DHT22;8350;52.316;10.530;2023-04-01T14:40:27;9.00;99.90
16479;DHT22;8350;52.316;10.530;2023-04-01T14:46:27;9.00;99.90
16479;DHT22;8350;52.316;10.530;2023-04-01T14:49:02;8.90;99.90
16479;DHT22;8350;52.316;10.530;2023-04-01T14:51:33;8.80;99.90
16479;DHT22;8350;52.316;10.530;2023-04-01T14:54:06;8.70;99.90
16479;DHT22;8350;52.316;10.530;2023-04-01T14:56:36;8.60;99.90
16479;DHT22;8350;52.316;10.530;2023-04-01T14:59:10;8.70;99.90
16479;DHT22;8350;52.316;10.530;2023-04-01T15:01:50;8.60;99.90
16479;DHT22;8350;52.316;10.530;2023-04-01T15:16:31;8.40;99.90
16479;DHT22;8350;52.316;10.530;2023-04-01T15:19:11;8.30;99.90
16479;DHT22;8350;52.316;10.530;2023-04-01T15:22:23;8.30;99.90
16479;DHT22;8350;52.316;10.530;2023-04-01T15:25:04;8.30;99.90
16479;DHT22;8350;52.316;10.530;2023-04-01T15:27:39;8.20;99.90
16479;DHT22;8350;52.316;10.530;2023-04-01T15:30:24;8.20;99.90
16479;DHT22;8350;52.316;10.530;2023-04-01T15:33:22;8.20;99.90
16479;DHT22;8350;52.316;10.530;2023-04-01T15:35:59;8.20;99.90
16479;DHT22;8350;52.316;10.530;2023-04-01T15:38:34;8.20;99.90
16479;DHT22;8350;52.316;10.530;2023-04-01T15:41:09;8.10;99.90
16479;DHT22;8350;52.316;10.530;2023-04-01T15:43:41;8.10;99.90
16479;DHT22;8350;52.316;10.530;2023-04-01T15:46:19;8.10;99.90
16479;DHT22;8350;52.316;10.530;2023-04-01T15:49:00;8.00;99.90
16479;DHT22;8350;52.316;10.530;2023-04-01T15:51:41;8.00;99.90
16479;DHT22;8350;52.316;10.530;2023-04-01T15:57:33;8.00;99.90
16479;DHT22;8350;52.316;10.530;2023-04-01T16:00:11;7.90;99.90
16479;DHT22;8350;52.316;10.530;2023-04-01T16:02:46;7.80;99.90
16479;DHT22;8350;52.316;10.530;2023-04-01T16:05:27;7.80;99.90
16479;DHT22;8350;52.316;10.530;2023-04-01T16:08:18;7.70;99.90
16479;DHT22;8350;52.316;10.530;2023-04-01T16:10:59;7.60;99.90
16479;DHT22;8350;52.316;10.530;2023-04-01T16:13:42;7.60;99.90
16479;DHT22;8350;52.316;10.530;2023-04-01T16:16:22;7.60;99.90
16479;DHT22;8350;52.316;10.530;2023-04-01T16:19:03;7.60;99.90
16479;DHT22;8350;52.316;10.530;2023-04-01T16:21:45;7.60;99.90
16479;DHT22;8350;52.316;10.530;2023-04-01T16:24:20;7.60;99.90
16479;DHT22;8350;52.316;10.530;2023-04-01T16:26:54;7.50;99.90
16479;DHT22;8350;52.316;10.530;2023-04-01T16:29:29;7.50;99.90
16479;DHT22;8350;52.316;10.530;2023-04-01T16:32:17;7.50;99.90
16479;DHT22;8350;52.316;10.530;2023-04-01T16:34:53;7.40;99.90
16479;DHT22;8350;52.316;10.530;2023-04-01T16:37:31;7.50;99.90
16479;DHT22;8350;52.316;10.530;2023-04-01T16:40:12;7.40;99.90
16479;DHT22;8350;52.316;10.530;2023-04-01T16:42:47;7.40;99.90
16479;DHT22;8350;52.316;10.530;2023-04-01T16:45:26;7.30;99.90
16479;DHT22;8350;52.316;10.530;2023-04-01T16:48:05;7.30;99.90
16479;DHT22;8350;52.316;10.530;2023-04-01T16:50:43;7.20;99.90
16479;DHT22;8350;52.316;10.530;2023-04-01T16:53:18;7.20;99.90
16479;DHT22;8350;52.316;10.530;2023-04-01T16:55:54;7.20;99.90
16479;DHT22;8350;52.316;10.530;2023-04-01T16:58:27;7.20;99.90
16479;DHT22;8350;52.316;10.530;2023-04-01T17:01:02;7.20;99.90
16479;DHT22;8350;52.316;10.530;2023-04-01T17:03:33;7.20;99.90
16479;DHT22;8350;52.316;10.530;2023-04-01T17:06:17;7.20;99.90
16479;DHT22;8350;52.316;10.530;2023-04-01T17:11:56;7.00;99.90
16479;DHT22;8350;52.316;10.530;2023-04-01T17:14:27;7.00;99.90
16479;DHT22;8350;52.316;10.530;2023-04-01T17:17:19;6.90;99.90
16479;DHT22;8350;52.316;10.530;2023-04-01T17:20:17;6.80;99.90
16479;DHT22;8350;52.316;10.530;2023-04-01T17:22:53;6.70;99.90
16479;DHT22;8350;52.316;10.530;2023-04-01T17:25:44;6.60;99.90
16479;DHT22;8350;52.316;10.530;2023-04-01T17:28:26;6.60;99.90
16479;DHT22;8350;52.316;10.530;2023-04-01T17:31:00;6.50;99.90
16479;DHT22;8350;52.316;10.530;2023-04-01T17:36:44;6.40;99.90
16479;DHT22;8350;52.316;10.530;2023-04-01T17:39:33;6.40;99.90
16479;DHT22;8350;52.316;10.530;2023-04-01T17:42:08;6.40;99.90
16479;DHT22;8350;52.316;10.530;2023-04-01T17:44:56;6.40;99.90
16479;DHT22;8350;52.316;10.530;2023-04-01T17:47:41;6.30;99.90
16479;DHT22;8350;52.316;10.530;2023-04-01T17:50:24;6.30;99.90
16479;DHT22;8350;52.316;10.530;2023-04-01T17:55:49;6.30;99.90
16479;DHT22;8350;52.316;10.530;2023-04-01T17:58:21;6.20;99.90
16479;DHT22;8350;52.316;10.530;2023-04-01T18:01:10;6.20;99.90
16479;DHT22;8350;52.316;10.530;2023-04-01T18:04:06;6.10;99.90
16479;DHT22;8350;52.316;10.530;2023-04-01T18:06:36;6.10;99.90
16479;DHT22;8350;52.316;10.530;2023-04-01T18:09:17;6.10;99.90
16479;DHT22;8350;52.316;10.530;2023-04-01T18:11:57;6.00;99.90
16479;DHT22;8350;52.316;10.530;2023-04-01T18:14:50;6.00;99.90
16479;DHT22;8350;52.316;10.530;2023-04-01T18:17:24;6.00;99.90
16479;DHT22;8350;52.316;10.530;2023-04-01T18:22:42;6.00;99.90
16479;DHT22;8350;52.316;10.530;2023-04-01T18:25:19;5.90;99.90
16479;DHT22;8350;52.316;10.530;2023-04-01T18:27:51;5.90;99.90
16479;DHT22;8350;52.316;10.530;2023-04-01T18:30:22;5.90;99.90
16479;DHT22;8350;52.316;10.530;2023-04-01T18:32:57;5.80;99.90
16479;DHT22;8350;52.316;10.530;2023-04-01T18:35:32;5.80;99.90
16479;DHT22;8350;52.316;10.530;2023-04-01T18:38:10;5.70;99.90
16479;DHT22;8350;52.316;10.530;2023-04-01T18:40:45;5.70;99.90
16479;DHT22;8350;52.316;10.530;2023-04-01T18:43:21;5.70;99.90
16479;DHT22;8350;52.316;10.530;2023-04-01T18:45:57;5.70;99.90